createdAt,value
2023-04-07T00:04:31.153Z,1.97
2023-04-07T00:09:31.916Z,1.92
2023-04-07T00:14:33.819Z,1.83
2023-04-07T00:19:35.886Z,1.76
2023-04-07T00:24:36.596Z,1.72
2023-04-07T00:29:37.224Z,1.66
2023-04-07T00:34:39.130Z,1.59
2023-04-07T00:39:39.709Z,1.50
2023-04-07T00:44:40.414Z,1.45
2023-04-07T00:49:42.435Z,1.41
2023-04-07T00:54:43.707Z,1.39
2023-04-07T00:59:44.293Z,1.32
2023-04-07T01:04:52.598Z,1.24
2023-04-07T01:09:58.649Z,1.18
2023-04-07T01:15:05.657Z,1.15
2023-04-07T01:20:15.182Z,1.08
2023-04-07T01:25:30.438Z,1.04
2023-04-07T01:30:34.258Z,1.03
2023-04-07T01:35:36.849Z,0.99
2023-04-07T01:40:40.327Z,0.89
2023-04-07T01:45:43.514Z,0.84
2023-04-07T01:50:45.198Z,0.75
2023-04-07T01:55:46.524Z,0.79
2023-04-07T02:00:49.390Z,0.73
2023-04-07T02:06:02.455Z,0.69
2023-04-07T02:11:06.513Z,0.65
2023-04-07T02:16:11.902Z,0.61
2023-04-07T02:21:15.044Z,0.62
2023-04-07T02:26:19.043Z,0.55
2023-04-07T02:31:24.066Z,0.46
2023-04-07T02:36:24.743Z,0.43
2023-04-07T02:41:26.209Z,0.39
2023-04-07T02:46:28.157Z,0.39
2023-04-07T02:51:29.011Z,0.37
2023-04-07T02:56:29.946Z,0.37
2023-04-07T03:01:31.974Z,0.33
2023-04-07T03:06:33.418Z,0.27
2023-04-07T03:11:45.324Z,0.26
2023-04-07T03:16:47.405Z,0.28
2023-04-07T03:21:49.376Z,0.25
2023-04-07T03:26:51.258Z,0.20
2023-04-07T03:32:09.636Z,0.21
2023-04-07T03:37:10.295Z,0.23
2023-04-07T03:42:11.983Z,0.22
2023-04-07T03:47:14.153Z,0.23
2023-04-07T03:52:15.620Z,0.17
2023-04-07T03:57:20.821Z,0.14
2023-04-07T04:02:24.183Z,0.12
2023-04-07T04:07:27.330Z,0.08
2023-04-07T04:12:32.230Z,0.03
2023-04-07T04:17:41.530Z,0.01
2023-04-07T04:22:43.061Z,0.01
2023-04-07T04:27:45.715Z,0.00
2023-04-07T04:32:55.623Z,0.01
2023-04-07T04:38:05.939Z,-0.08
2023-04-07T04:43:07.434Z,-0.03
2023-04-07T04:48:12.106Z,-0.09
2023-04-07T04:53:12.938Z,-0.06
2023-04-07T04:58:21.774Z,-0.05
2023-04-07T05:03:28.194Z,0.00
2023-04-07T05:08:32.631Z,0.03
2023-04-07T05:13:34.710Z,0.04
2023-04-07T05:18:38.972Z,0.11
2023-04-07T05:23:40.094Z,0.12
2023-04-07T05:28:42.015Z,0.22
2023-04-07T05:33:50.832Z,0.32
2023-04-07T05:38:59.106Z,0.41
2023-04-07T05:44:00.868Z,0.47
2023-04-07T05:49:16.734Z,0.53
2023-04-07T05:54:24.891Z,0.65
2023-04-07T05:59:26.783Z,0.72
2023-04-07T06:04:28.997Z,0.87
2023-04-07T06:09:29.831Z,1.00
2023-04-07T06:14:30.732Z,1.11
2023-04-07T06:19:33.311Z,1.32
2023-04-07T06:24:34.765Z,1.51
2023-04-07T06:29:37.501Z,1.63
2023-04-07T06:34:41.764Z,1.76
2023-04-07T06:39:43.016Z,2.02
2023-04-07T06:44:43.644Z,2.26
2023-04-07T06:49:45.590Z,2.55
2023-04-07T06:54:46.204Z,2.65
2023-04-07T06:59:47.174Z,2.86
2023-04-07T07:04:49.137Z,3.19
2023-04-07T07:09:49.753Z,3.44
2023-04-07T07:14:50.317Z,3.72
2023-04-07T07:19:52.253Z,3.94
2023-04-07T07:24:56.419Z,3.95
2023-04-07T07:29:57.124Z,4.47
2023-04-07T07:34:59.699Z,4.82
2023-04-07T07:40:00.336Z,4.99
2023-04-07T07:45:01.223Z,4.98
2023-04-07T07:50:03.188Z,5.45
2023-04-07T07:55:03.922Z,5.77
2023-04-07T08:00:05.134Z,5.34
2023-04-07T08:05:15.504Z,5.39
2023-04-07T08:10:16.502Z,6.26
2023-04-07T08:15:17.082Z,6.70
2023-04-07T08:20:19.218Z,7.55
2023-04-07T08:25:20.903Z,7.44
2023-04-07T08:30:22.290Z,8.31
2023-04-07T08:35:24.414Z,8.91
2023-04-07T08:40:25.285Z,8.98
2023-04-07T08:45:27.366Z,9.24
2023-04-07T08:50:29.791Z,9.59
2023-04-07T08:55:30.398Z,9.68
2023-04-07T09:00:31.905Z,9.97
2023-04-07T09:05:34.472Z,9.90
2023-04-07T09:10:35.085Z,10.07
2023-04-07T09:15:38.010Z,10.39
2023-04-07T09:21:01.246Z,10.30
2023-04-07T09:26:20.228Z,10.65
2023-04-07T09:31:22.113Z,10.78
2023-04-07T09:36:27.038Z,10.65
2023-04-07T09:41:28.928Z,11.09
2023-04-07T09:46:29.687Z,10.89
2023-04-07T09:51:34.350Z,11.20
2023-04-07T09:56:35.690Z,11.38
2023-04-07T10:01:37.026Z,10.78
2023-04-07T10:06:40.118Z,10.80
2023-04-07T10:11:42.514Z,10.49
2023-04-07T10:16:43.458Z,9.77
2023-04-07T10:21:46.475Z,9.52
2023-04-07T10:26:53.072Z,9.56
2023-04-07T10:31:53.946Z,9.91
2023-04-07T10:42:48.500Z,10.70
2023-04-07T10:48:11.506Z,11.11
2023-04-07T10:53:13.399Z,11.66
2023-04-07T10:58:24.690Z,11.94
2023-04-07T11:03:26.581Z,11.91
2023-04-07T11:08:34.683Z,11.29
2023-04-07T11:13:42.824Z,11.88
2023-04-07T11:18:44.019Z,12.51
2023-04-07T11:23:46.182Z,12.44
2023-04-07T11:28:59.312Z,12.43
2023-04-07T11:34:01.735Z,12.46
2023-04-07T11:39:03.478Z,12.54
2023-04-07T11:44:10.760Z,12.88
2023-04-07T11:49:13.294Z,11.85
2023-04-07T11:54:14.236Z,11.48
2023-04-07T11:59:24.382Z,11.68
2023-04-07T12:04:25.086Z,11.25
2023-04-07T12:09:31.145Z,11.23
2023-04-07T12:14:33.724Z,11.57
2023-04-07T12:19:34.852Z,11.80
2023-04-07T12:24:35.510Z,11.69
2023-04-07T12:29:38.187Z,11.54
2023-04-07T12:34:39.406Z,12.30
2023-04-07T12:39:40.185Z,12.57
2023-04-07T12:44:42.101Z,12.48
2023-04-07T12:49:42.757Z,11.85
2023-04-07T12:54:44.460Z,12.24
2023-04-07T12:59:46.489Z,12.54
2023-04-07T13:04:47.747Z,12.83
2023-04-07T13:09:48.644Z,11.72
2023-04-07T13:14:59.815Z,11.83
2023-04-07T13:20:01.098Z,11.84
2023-04-07T13:25:02.252Z,12.05
2023-04-07T13:30:04.848Z,11.57
2023-04-07T13:35:06.329Z,11.47
2023-04-07T13:40:08.537Z,11.44
2023-04-07T13:45:10.927Z,11.87
2023-04-07T13:50:11.652Z,11.83
2023-04-07T13:55:12.298Z,10.98
2023-04-07T14:00:15.552Z,11.10
2023-04-07T14:05:16.311Z,10.84
2023-04-07T14:10:17.033Z,10.61
2023-04-07T14:15:18.926Z,10.71
2023-04-07T14:20:19.705Z,10.99
2023-04-07T14:25:20.687Z,10.71
2023-04-07T14:30:22.858Z,11.21
2023-04-07T14:35:23.723Z,11.32
2023-04-07T14:40:24.342Z,11.39
2023-04-07T14:45:26.359Z,10.85
2023-04-07T14:50:27.332Z,10.62
2023-04-07T14:55:28.061Z,10.59
2023-04-07T15:00:30.011Z,10.09
2023-04-07T15:05:30.856Z,10.23
2023-04-07T15:10:35.396Z,10.44
2023-04-07T15:15:37.323Z,10.54
2023-04-07T15:20:37.936Z,10.07
2023-04-07T15:25:38.506Z,9.55
2023-04-07T15:30:40.450Z,9.42
2023-04-07T15:35:43.500Z,9.53
2023-04-07T15:40:44.105Z,9.26
2023-04-07T15:45:46.097Z,9.54
2023-04-07T15:50:46.712Z,9.00
2023-04-07T15:55:47.382Z,9.01
2023-04-07T16:00:49.515Z,8.54
2023-04-07T16:05:51.204Z,8.56
2023-04-07T16:10:51.862Z,8.51
2023-04-07T16:15:58.451Z,8.18
2023-04-07T16:20:59.215Z,8.04
2023-04-07T16:25:59.858Z,8.17
2023-04-07T16:31:02.972Z,7.64
2023-04-07T16:36:03.601Z,7.54
2023-04-07T16:41:04.952Z,7.40
2023-04-07T16:46:07.263Z,7.36
2023-04-07T16:51:08.044Z,7.47
2023-04-07T16:56:16.300Z,7.60
2023-04-07T17:01:18.396Z,7.13
2023-04-07T17:06:19.045Z,7.50
2023-04-07T17:11:19.662Z,7.33
2023-04-07T17:16:21.806Z,7.20
2023-04-07T17:21:22.457Z,7.12
2023-04-07T17:26:24.256Z,6.92
2023-04-07T17:31:26.295Z,6.79
2023-04-07T17:36:27.709Z,6.68
2023-04-07T17:41:29.143Z,6.65
2023-04-07T17:46:31.174Z,6.66
2023-04-07T17:51:32.766Z,6.54
2023-04-07T17:56:33.552Z,6.56
2023-04-07T18:01:35.531Z,6.51
2023-04-07T18:06:37.189Z,6.52
2023-04-07T18:11:37.878Z,6.41
2023-04-07T18:16:40.414Z,6.17
2023-04-07T18:21:41.059Z,6.04
2023-04-07T18:26:43.745Z,6.07
2023-04-07T18:31:45.872Z,5.88
2023-04-07T18:36:47.660Z,5.99
2023-04-07T18:41:48.589Z,5.85
2023-04-07T18:46:50.597Z,5.57
2023-04-07T18:51:52.177Z,5.57
2023-04-07T18:56:53.500Z,5.35
2023-04-07T19:01:56.648Z,4.98
2023-04-07T19:06:57.583Z,4.92
2023-04-07T19:11:58.279Z,4.65
2023-04-07T19:17:00.382Z,4.62
2023-04-07T19:22:01.038Z,4.69
2023-04-07T19:27:02.083Z,4.56
2023-04-07T19:32:04.651Z,4.68
2023-04-07T19:37:05.407Z,4.58
2023-04-07T19:42:05.991Z,4.52
2023-04-07T19:47:08.204Z,4.48
2023-04-07T19:52:08.780Z,4.42
2023-04-07T19:57:09.522Z,4.54
2023-04-07T20:02:11.506Z,4.55
2023-04-07T20:07:12.180Z,4.47
2023-04-07T20:12:12.744Z,4.54
2023-04-07T20:17:14.757Z,4.35
2023-04-07T20:22:15.566Z,4.49
2023-04-07T20:27:16.262Z,4.34
2023-04-07T20:32:19.267Z,4.40
2023-04-07T20:37:20.570Z,4.36
2023-04-07T20:42:21.203Z,4.46
2023-04-07T20:47:23.648Z,4.55
2023-04-07T20:52:25.238Z,4.58
2023-04-07T20:57:26.676Z,4.57
2023-04-07T21:02:29.106Z,4.36
2023-04-07T21:07:29.829Z,4.29
2023-04-07T21:12:30.677Z,4.28
2023-04-07T21:17:32.610Z,4.24
2023-04-07T21:22:33.228Z,4.09
2023-04-07T21:27:33.906Z,4.06
2023-04-07T21:32:36.586Z,4.11
2023-04-07T21:37:37.260Z,4.13
2023-04-07T21:42:37.916Z,4.02
2023-04-07T21:47:39.864Z,4.02
2023-04-07T21:52:41.202Z,3.95
2023-04-07T21:57:41.873Z,4.02
2023-04-07T22:02:45.157Z,4.02
2023-04-07T22:07:46.798Z,3.93
2023-04-07T22:12:47.408Z,3.83
2023-04-07T22:17:49.750Z,3.87
2023-04-07T22:22:50.621Z,3.79
2023-04-07T22:27:52.313Z,3.79
2023-04-07T22:32:54.287Z,3.80
2023-04-07T22:37:54.900Z,3.76
2023-04-07T22:42:55.591Z,3.84
2023-04-07T22:47:57.551Z,3.89
2023-04-07T22:52:59.196Z,3.93
2023-04-07T22:57:59.778Z,3.87
2023-04-07T23:03:01.866Z,3.94
2023-04-07T23:08:02.577Z,3.98
2023-04-07T23:13:03.167Z,3.94
2023-04-07T23:18:05.089Z,3.98
2023-04-07T23:23:05.786Z,3.99
2023-04-07T23:28:06.377Z,3.94
2023-04-07T23:33:08.276Z,4.03
2023-04-07T23:38:10.897Z,3.95
2023-04-07T23:43:11.728Z,3.94
2023-04-07T23:48:13.636Z,3.96
2023-04-07T23:53:14.299Z,3.97
2023-04-07T23:58:14.883Z,4.00
